sensor_id;sensor_type;location;lat;lon;timestamp;P1;durP1;ratioP1;P2;durP2;ratioP2
28822;SDS011;15961;54.678;9.110;2023-06-14T00:00:30;5.30;;;2.95;;
28822;SDS011;15961;54.678;9.110;2023-06-14T00:02:56;5.05;;;2.38;;
28822;SDS011;15961;54.678;9.110;2023-06-14T00:05:21;8.63;;;3.60;;
28822;SDS011;15961;54.678;9.110;2023-06-14T00:07:48;6.07;;;2.33;;
28822;SDS011;15961;54.678;9.110;2023-06-14T00:10:14;4.25;;;2.70;;
28822;SDS011;15961;54.678;9.110;2023-06-14T00:12:40;10.15;;;2.67;;
28822;SDS011;15961;54.678;9.110;2023-06-14T00:15:07;7.85;;;3.28;;
28822;SDS011;15961;54.678;9.110;2023-06-14T00:17:34;4.70;;;2.83;;
28822;SDS011;15961;54.678;9.110;2023-06-14T00:20:01;5.72;;;2.40;;
28822;SDS011;15961;54.678;9.110;2023-06-14T00:22:30;4.30;;;2.22;;
28822;SDS011;15961;54.678;9.110;2023-06-14T00:24:55;5.63;;;2.53;;
28822;SDS011;15961;54.678;9.110;2023-06-14T00:27:21;4.30;;;2.83;;
28822;SDS011;15961;54.678;9.110;2023-06-14T00:29:46;5.15;;;2.60;;
28822;SDS011;15961;54.678;9.110;2023-06-14T00:32:11;4.57;;;2.72;;
28822;SDS011;15961;54.678;9.110;2023-06-14T00:34:37;6.15;;;2.67;;
28822;SDS011;15961;54.678;9.110;2023-06-14T00:37:02;3.88;;;2.60;;
28822;SDS011;15961;54.678;9.110;2023-06-14T00:39:27;4.80;;;2.95;;
28822;SDS011;15961;54.678;9.110;2023-06-14T00:41:53;5.65;;;2.75;;
28822;SDS011;15961;54.678;9.110;2023-06-14T00:44:18;7.30;;;2.60;;
28822;SDS011;15961;54.678;9.110;2023-06-14T00:46:46;3.38;;;2.30;;
28822;SDS011;15961;54.678;9.110;2023-06-14T00:49:15;4.22;;;2.53;;
28822;SDS011;15961;54.678;9.110;2023-06-14T00:51:41;4.65;;;2.70;;
28822;SDS011;15961;54.678;9.110;2023-06-14T00:54:06;3.58;;;2.22;;
28822;SDS011;15961;54.678;9.110;2023-06-14T00:56:32;4.10;;;2.63;;
28822;SDS011;15961;54.678;9.110;2023-06-14T00:58:57;4.50;;;2.45;;
28822;SDS011;15961;54.678;9.110;2023-06-14T01:01:23;5.63;;;3.40;;
28822;SDS011;15961;54.678;9.110;2023-06-14T01:03:49;4.22;;;2.50;;
28822;SDS011;15961;54.678;9.110;2023-06-14T01:06:25;3.58;;;2.08;;
28822;SDS011;15961;54.678;9.110;2023-06-14T01:12:31;5.18;;;2.40;;
28822;SDS011;15961;54.678;9.110;2023-06-14T01:15:09;5.97;;;2.17;;
28822;SDS011;15961;54.678;9.110;2023-06-14T01:17:35;5.18;;;2.53;;
28822;SDS011;15961;54.678;9.110;2023-06-14T01:20:01;5.47;;;2.45;;
28822;SDS011;15961;54.678;9.110;2023-06-14T01:22:27;3.53;;;2.00;;
28822;SDS011;15961;54.678;9.110;2023-06-14T01:24:53;5.25;;;2.45;;
28822;SDS011;15961;54.678;9.110;2023-06-14T01:27:21;2.97;;;2.00;;
28822;SDS011;15961;54.678;9.110;2023-06-14T01:29:48;3.53;;;2.20;;
28822;SDS011;15961;54.678;9.110;2023-06-14T01:32:16;7.43;;;2.10;;
28822;SDS011;15961;54.678;9.110;2023-06-14T01:34:42;5.28;;;2.78;;
28822;SDS011;15961;54.678;9.110;2023-06-14T01:37:08;3.25;;;2.20;;
28822;SDS011;15961;54.678;9.110;2023-06-14T01:39:33;2.95;;;1.83;;
28822;SDS011;15961;54.678;9.110;2023-06-14T01:41:59;4.03;;;2.15;;
28822;SDS011;15961;54.678;9.110;2023-06-14T01:44:25;3.63;;;2.22;;
28822;SDS011;15961;54.678;9.110;2023-06-14T01:46:51;4.78;;;1.98;;
28822;SDS011;15961;54.678;9.110;2023-06-14T01:49:16;4.63;;;2.28;;
28822;SDS011;15961;54.678;9.110;2023-06-14T01:51:42;3.42;;;2.15;;
28822;SDS011;15961;54.678;9.110;2023-06-14T01:54:07;4.22;;;2.75;;
28822;SDS011;15961;54.678;9.110;2023-06-14T01:56:32;3.13;;;2.13;;
28822;SDS011;15961;54.678;9.110;2023-06-14T01:58:57;3.58;;;2.17;;
28822;SDS011;15961;54.678;9.110;2023-06-14T02:01:23;3.78;;;2.38;;
28822;SDS011;15961;54.678;9.110;2023-06-14T02:03:49;3.70;;;2.60;;
28822;SDS011;15961;54.678;9.110;2023-06-14T02:06:16;4.72;;;2.35;;
28822;SDS011;15961;54.678;9.110;2023-06-14T02:08:41;4.18;;;2.03;;
28822;SDS011;15961;54.678;9.110;2023-06-14T02:11:07;5.25;;;3.20;;
28822;SDS011;15961;54.678;9.110;2023-06-14T02:13:33;4.43;;;2.70;;
28822;SDS011;15961;54.678;9.110;2023-06-14T02:15:59;3.22;;;2.88;;
28822;SDS011;15961;54.678;9.110;2023-06-14T02:18:24;4.47;;;2.42;;
28822;SDS011;15961;54.678;9.110;2023-06-14T02:20:50;4.03;;;2.35;;
28822;SDS011;15961;54.678;9.110;2023-06-14T02:23:15;5.15;;;2.28;;
28822;SDS011;15961;54.678;9.110;2023-06-14T02:25:40;2.75;;;2.10;;
28822;SDS011;15961;54.678;9.110;2023-06-14T02:28:06;5.82;;;2.63;;
28822;SDS011;15961;54.678;9.110;2023-06-14T02:30:31;4.72;;;2.33;;
28822;SDS011;15961;54.678;9.110;2023-06-14T02:32:57;4.93;;;2.70;;
28822;SDS011;15961;54.678;9.110;2023-06-14T02:35:22;3.78;;;2.22;;
28822;SDS011;15961;54.678;9.110;2023-06-14T02:37:51;3.38;;;2.08;;
28822;SDS011;15961;54.678;9.110;2023-06-14T02:40:16;8.00;;;2.47;;
28822;SDS011;15961;54.678;9.110;2023-06-14T02:42:41;4.95;;;2.70;;
28822;SDS011;15961;54.678;9.110;2023-06-14T02:45:07;5.32;;;3.13;;
28822;SDS011;15961;54.678;9.110;2023-06-14T02:47:33;4.78;;;2.88;;
28822;SDS011;15961;54.678;9.110;2023-06-14T02:49:58;7.10;;;3.10;;
28822;SDS011;15961;54.678;9.110;2023-06-14T02:52:23;4.15;;;2.55;;
28822;SDS011;15961;54.678;9.110;2023-06-14T02:54:50;4.47;;;2.83;;
28822;SDS011;15961;54.678;9.110;2023-06-14T02:57:15;6.55;;;3.80;;
28822;SDS011;15961;54.678;9.110;2023-06-14T02:59:41;4.30;;;2.72;;
28822;SDS011;15961;54.678;9.110;2023-06-14T03:02:06;5.68;;;3.17;;
28822;SDS011;15961;54.678;9.110;2023-06-14T03:04:31;6.53;;;3.03;;
28822;SDS011;15961;54.678;9.110;2023-06-14T03:07:02;5.97;;;2.90;;
28822;SDS011;15961;54.678;9.110;2023-06-14T03:09:33;3.88;;;2.70;;
28822;SDS011;15961;54.678;9.110;2023-06-14T03:12:00;6.18;;;3.58;;
28822;SDS011;15961;54.678;9.110;2023-06-14T03:14:25;6.30;;;2.70;;
28822;SDS011;15961;54.678;9.110;2023-06-14T03:16:50;5.78;;;3.00;;
28822;SDS011;15961;54.678;9.110;2023-06-14T03:19:16;4.78;;;3.22;;
28822;SDS011;15961;54.678;9.110;2023-06-14T03:21:41;8.13;;;4.25;;
28822;SDS011;15961;54.678;9.110;2023-06-14T03:24:09;4.90;;;3.05;;
28822;SDS011;15961;54.678;9.110;2023-06-14T03:26:34;5.97;;;3.05;;
28822;SDS011;15961;54.678;9.110;2023-06-14T03:29:02;4.40;;;3.03;;
28822;SDS011;15961;54.678;9.110;2023-06-14T03:31:28;5.70;;;3.08;;
28822;SDS011;15961;54.678;9.110;2023-06-14T03:33:57;6.70;;;2.88;;
28822;SDS011;15961;54.678;9.110;2023-06-14T03:36:23;5.20;;;3.10;;
28822;SDS011;15961;54.678;9.110;2023-06-14T03:38:48;5.90;;;2.97;;
28822;SDS011;15961;54.678;9.110;2023-06-14T03:41:13;5.38;;;3.00;;
28822;SDS011;15961;54.678;9.110;2023-06-14T03:43:39;6.53;;;4.25;;
28822;SDS011;15961;54.678;9.110;2023-06-14T03:46:04;7.03;;;3.47;;
28822;SDS011;15961;54.678;9.110;2023-06-14T03:48:29;5.70;;;3.03;;
28822;SDS011;15961;54.678;9.110;2023-06-14T03:50:55;6.38;;;3.70;;
28822;SDS011;15961;54.678;9.110;2023-06-14T03:53:21;4.05;;;2.70;;
28822;SDS011;15961;54.678;9.110;2023-06-14T03:55:48;6.90;;;3.65;;
28822;SDS011;15961;54.678;9.110;2023-06-14T03:58:15;6.85;;;3.70;;
28822;SDS011;15961;54.678;9.110;2023-06-14T04:00:40;5.90;;;2.92;;
28822;SDS011;15961;54.678;9.110;2023-06-14T04:03:05;8.90;;;3.90;;
28822;SDS011;15961;54.678;9.110;2023-06-14T04:05:31;7.45;;;4.18;;
28822;SDS011;15961;54.678;9.110;2023-06-14T04:07:56;6.30;;;3.97;;
28822;SDS011;15961;54.678;9.110;2023-06-14T04:10:22;5.30;;;3.38;;
28822;SDS011;15961;54.678;9.110;2023-06-14T04:12:47;5.20;;;3.38;;
28822;SDS011;15961;54.678;9.110;2023-06-14T04:15:13;8.32;;;3.58;;
28822;SDS011;15961;54.678;9.110;2023-06-14T04:17:38;8.90;;;3.90;;
28822;SDS011;15961;54.678;9.110;2023-06-14T04:20:04;3.95;;;2.70;;
28822;SDS011;15961;54.678;9.110;2023-06-14T04:22:31;8.73;;;4.10;;
28822;SDS011;15961;54.678;9.110;2023-06-14T04:24:57;6.40;;;3.25;;
28822;SDS011;15961;54.678;9.110;2023-06-14T04:27:22;4.63;;;3.13;;
28822;SDS011;15961;54.678;9.110;2023-06-14T04:29:53;6.28;;;3.55;;
28822;SDS011;15961;54.678;9.110;2023-06-14T04:32:25;5.97;;;3.47;;
28822;SDS011;15961;54.678;9.110;2023-06-14T04:34:52;5.97;;;3.45;;
28822;SDS011;15961;54.678;9.110;2023-06-14T04:37:19;7.55;;;3.50;;
28822;SDS011;15961;54.678;9.110;2023-06-14T04:39:46;10.38;;;3.80;;
28822;SDS011;15961;54.678;9.110;2023-06-14T04:42:12;5.18;;;3.60;;
28822;SDS011;15961;54.678;9.110;2023-06-14T04:44:40;6.88;;;4.28;;
28822;SDS011;15961;54.678;9.110;2023-06-14T04:47:06;8.57;;;4.50;;
28822;SDS011;15961;54.678;9.110;2023-06-14T04:49:31;10.88;;;4.03;;
28822;SDS011;15961;54.678;9.110;2023-06-14T04:51:57;9.13;;;3.60;;
28822;SDS011;15961;54.678;9.110;2023-06-14T04:54:24;5.35;;;3.70;;
28822;SDS011;15961;54.678;9.110;2023-06-14T04:56:52;9.68;;;4.40;;
28822;SDS011;15961;54.678;9.110;2023-06-14T04:59:20;7.63;;;4.60;;
28822;SDS011;15961;54.678;9.110;2023-06-14T05:01:45;6.45;;;3.70;;
28822;SDS011;15961;54.678;9.110;2023-06-14T05:04:13;5.80;;;3.97;;
28822;SDS011;15961;54.678;9.110;2023-06-14T05:06:40;5.93;;;4.28;;
28822;SDS011;15961;54.678;9.110;2023-06-14T05:09:06;9.35;;;5.32;;
28822;SDS011;15961;54.678;9.110;2023-06-14T05:11:31;6.85;;;5.18;;
28822;SDS011;15961;54.678;9.110;2023-06-14T05:13:56;6.85;;;3.80;;
28822;SDS011;15961;54.678;9.110;2023-06-14T05:16:23;9.75;;;4.40;;
28822;SDS011;15961;54.678;9.110;2023-06-14T05:18:50;9.05;;;4.10;;
28822;SDS011;15961;54.678;9.110;2023-06-14T05:21:15;5.28;;;3.85;;
28822;SDS011;15961;54.678;9.110;2023-06-14T05:23:43;6.97;;;4.93;;
28822;SDS011;15961;54.678;9.110;2023-06-14T05:26:09;6.43;;;3.25;;
28822;SDS011;15961;54.678;9.110;2023-06-14T05:28:35;5.65;;;3.10;;
28822;SDS011;15961;54.678;9.110;2023-06-14T05:31:01;5.30;;;2.80;;
28822;SDS011;15961;54.678;9.110;2023-06-14T05:33:26;9.45;;;3.08;;
28822;SDS011;15961;54.678;9.110;2023-06-14T05:35:51;5.55;;;2.90;;
28822;SDS011;15961;54.678;9.110;2023-06-14T05:38:16;6.72;;;3.13;;
28822;SDS011;15961;54.678;9.110;2023-06-14T05:40:42;9.02;;;3.22;;
28822;SDS011;15961;54.678;9.110;2023-06-14T05:43:07;8.45;;;3.15;;
28822;SDS011;15961;54.678;9.110;2023-06-14T05:45:32;5.78;;;3.03;;
28822;SDS011;15961;54.678;9.110;2023-06-14T05:47:58;10.75;;;3.70;;
28822;SDS011;15961;54.678;9.110;2023-06-14T05:50:23;5.00;;;2.75;;
28822;SDS011;15961;54.678;9.110;2023-06-14T05:52:48;4.32;;;2.67;;
28822;SDS011;15961;54.678;9.110;2023-06-14T05:55:15;6.57;;;2.80;;
28822;SDS011;15961;54.678;9.110;2023-06-14T05:57:41;5.60;;;3.05;;
28822;SDS011;15961;54.678;9.110;2023-06-14T06:00:07;5.88;;;3.08;;
28822;SDS011;15961;54.678;9.110;2023-06-14T06:02:35;5.45;;;2.83;;
28822;SDS011;15961;54.678;9.110;2023-06-14T06:05:00;7.15;;;3.15;;
28822;SDS011;15961;54.678;9.110;2023-06-14T06:07:26;4.13;;;2.63;;
28822;SDS011;15961;54.678;9.110;2023-06-14T06:09:51;5.18;;;2.90;;
28822;SDS011;15961;54.678;9.110;2023-06-14T06:12:16;4.40;;;2.85;;
28822;SDS011;15961;54.678;9.110;2023-06-14T06:14:42;5.28;;;2.72;;
28822;SDS011;15961;54.678;9.110;2023-06-14T06:17:08;6.13;;;3.03;;
28822;SDS011;15961;54.678;9.110;2023-06-14T06:19:33;10.48;;;2.90;;
28822;SDS011;15961;54.678;9.110;2023-06-14T06:21:58;4.13;;;2.40;;
28822;SDS011;15961;54.678;9.110;2023-06-14T06:24:23;4.35;;;2.70;;
28822;SDS011;15961;54.678;9.110;2023-06-14T06:26:49;5.35;;;2.85;;
28822;SDS011;15961;54.678;9.110;2023-06-14T06:29:14;5.78;;;3.65;;
28822;SDS011;15961;54.678;9.110;2023-06-14T06:31:39;6.50;;;2.80;;
28822;SDS011;15961;54.678;9.110;2023-06-14T06:34:04;6.95;;;2.65;;
28822;SDS011;15961;54.678;9.110;2023-06-14T06:36:30;5.55;;;3.15;;
28822;SDS011;15961;54.678;9.110;2023-06-14T06:38:55;5.93;;;3.00;;
28822;SDS011;15961;54.678;9.110;2023-06-14T06:41:20;4.53;;;3.00;;
28822;SDS011;15961;54.678;9.110;2023-06-14T06:43:46;4.65;;;2.70;;
28822;SDS011;15961;54.678;9.110;2023-06-14T06:46:11;4.28;;;2.53;;
28822;SDS011;15961;54.678;9.110;2023-06-14T06:48:37;7.30;;;2.72;;
28822;SDS011;15961;54.678;9.110;2023-06-14T06:51:04;7.70;;;2.72;;
28822;SDS011;15961;54.678;9.110;2023-06-14T06:53:30;6.82;;;2.63;;
28822;SDS011;15961;54.678;9.110;2023-06-14T06:55:55;6.63;;;3.03;;
28822;SDS011;15961;54.678;9.110;2023-06-14T06:58:21;5.03;;;2.70;;
28822;SDS011;15961;54.678;9.110;2023-06-14T07:00:47;4.07;;;2.60;;
28822;SDS011;15961;54.678;9.110;2023-06-14T07:03:12;5.05;;;2.85;;
28822;SDS011;15961;54.678;9.110;2023-06-14T07:05:37;4.47;;;2.28;;
28822;SDS011;15961;54.678;9.110;2023-06-14T07:08:03;7.03;;;2.33;;
28822;SDS011;15961;54.678;9.110;2023-06-14T07:10:28;4.80;;;2.47;;
28822;SDS011;15961;54.678;9.110;2023-06-14T07:12:54;4.68;;;2.47;;
28822;SDS011;15961;54.678;9.110;2023-06-14T07:15:19;11.45;;;2.90;;
28822;SDS011;15961;54.678;9.110;2023-06-14T07:17:45;5.45;;;2.25;;
28822;SDS011;15961;54.678;9.110;2023-06-14T07:20:10;6.40;;;2.53;;
28822;SDS011;15961;54.678;9.110;2023-06-14T07:22:38;8.82;;;2.55;;
28822;SDS011;15961;54.678;9.110;2023-06-14T07:25:10;6.70;;;2.70;;
28822;SDS011;15961;54.678;9.110;2023-06-14T07:27:38;5.53;;;2.60;;
28822;SDS011;15961;54.678;9.110;2023-06-14T07:30:05;4.13;;;2.35;;
28822;SDS011;15961;54.678;9.110;2023-06-14T07:32:31;6.57;;;3.00;;
28822;SDS011;15961;54.678;9.110;2023-06-14T07:34:56;4.40;;;2.55;;
28822;SDS011;15961;54.678;9.110;2023-06-14T07:37:22;7.45;;;2.67;;
28822;SDS011;15961;54.678;9.110;2023-06-14T07:39:47;3.88;;;2.75;;
28822;SDS011;15961;54.678;9.110;2023-06-14T07:42:12;3.92;;;3.05;;
28822;SDS011;15961;54.678;9.110;2023-06-14T07:44:38;9.60;;;3.03;;
28822;SDS011;15961;54.678;9.110;2023-06-14T07:47:03;8.68;;;2.53;;
28822;SDS011;15961;54.678;9.110;2023-06-14T07:49:28;6.20;;;2.92;;
28822;SDS011;15961;54.678;9.110;2023-06-14T07:51:54;4.97;;;2.30;;
28822;SDS011;15961;54.678;9.110;2023-06-14T07:54:20;6.18;;;2.53;;
28822;SDS011;15961;54.678;9.110;2023-06-14T07:56:49;5.70;;;2.17;;
28822;SDS011;15961;54.678;9.110;2023-06-14T07:59:15;4.80;;;2.30;;
28822;SDS011;15961;54.678;9.110;2023-06-14T08:01:41;5.25;;;2.40;;
28822;SDS011;15961;54.678;9.110;2023-06-14T08:04:11;4.00;;;2.72;;
28822;SDS011;15961;54.678;9.110;2023-06-14T08:06:37;4.30;;;2.33;;
28822;SDS011;15961;54.678;9.110;2023-06-14T08:09:02;4.93;;;2.55;;
28822;SDS011;15961;54.678;9.110;2023-06-14T08:11:28;5.22;;;2.50;;
28822;SDS011;15961;54.678;9.110;2023-06-14T08:13:53;5.40;;;2.78;;
28822;SDS011;15961;54.678;9.110;2023-06-14T08:16:18;4.30;;;2.53;;
28822;SDS011;15961;54.678;9.110;2023-06-14T08:18:44;5.03;;;2.58;;
28822;SDS011;15961;54.678;9.110;2023-06-14T08:21:09;5.72;;;2.63;;
28822;SDS011;15961;54.678;9.110;2023-06-14T08:23:34;6.75;;;2.50;;
28822;SDS011;15961;54.678;9.110;2023-06-14T08:26:01;4.78;;;2.60;;
28822;SDS011;15961;54.678;9.110;2023-06-14T08:28:28;5.43;;;2.63;;
28822;SDS011;15961;54.678;9.110;2023-06-14T08:30:54;4.82;;;2.83;;
28822;SDS011;15961;54.678;9.110;2023-06-14T08:33:20;4.75;;;2.78;;
28822;SDS011;15961;54.678;9.110;2023-06-14T08:35:45;5.68;;;2.47;;
28822;SDS011;15961;54.678;9.110;2023-06-14T08:38:11;4.65;;;2.50;;
28822;SDS011;15961;54.678;9.110;2023-06-14T08:40:36;5.70;;;2.45;;
28822;SDS011;15961;54.678;9.110;2023-06-14T08:43:02;5.22;;;2.97;;
28822;SDS011;15961;54.678;9.110;2023-06-14T08:45:27;5.80;;;2.80;;
28822;SDS011;15961;54.678;9.110;2023-06-14T08:47:53;6.60;;;2.50;;
28822;SDS011;15961;54.678;9.110;2023-06-14T08:50:22;4.18;;;2.90;;
28822;SDS011;15961;54.678;9.110;2023-06-14T08:52:51;4.72;;;2.53;;
28822;SDS011;15961;54.678;9.110;2023-06-14T08:55:19;4.32;;;2.60;;
28822;SDS011;15961;54.678;9.110;2023-06-14T08:57:46;5.75;;;2.70;;
28822;SDS011;15961;54.678;9.110;2023-06-14T09:00:13;4.95;;;2.88;;
28822;SDS011;15961;54.678;9.110;2023-06-14T09:02:39;4.38;;;2.13;;
28822;SDS011;15961;54.678;9.110;2023-06-14T09:05:08;3.53;;;2.28;;
28822;SDS011;15961;54.678;9.110;2023-06-14T09:07:34;4.72;;;2.45;;
28822;SDS011;15961;54.678;9.110;2023-06-14T09:10:05;5.03;;;2.45;;
28822;SDS011;15961;54.678;9.110;2023-06-14T09:12:34;6.07;;;2.53;;
28822;SDS011;15961;54.678;9.110;2023-06-14T09:14:59;5.00;;;2.28;;
28822;SDS011;15961;54.678;9.110;2023-06-14T09:17:24;4.82;;;2.20;;
28822;SDS011;15961;54.678;9.110;2023-06-14T09:19:50;4.88;;;2.47;;
28822;SDS011;15961;54.678;9.110;2023-06-14T09:22:16;4.32;;;2.78;;
28822;SDS011;15961;54.678;9.110;2023-06-14T09:24:41;4.60;;;2.30;;
28822;SDS011;15961;54.678;9.110;2023-06-14T09:27:06;5.03;;;2.45;;
28822;SDS011;15961;54.678;9.110;2023-06-14T09:29:32;4.35;;;2.42;;
28822;SDS011;15961;54.678;9.110;2023-06-14T09:31:58;2.72;;;2.00;;
28822;SDS011;15961;54.678;9.110;2023-06-14T09:34:23;5.07;;;2.67;;
28822;SDS011;15961;54.678;9.110;2023-06-14T09:36:49;5.72;;;2.33;;
28822;SDS011;15961;54.678;9.110;2023-06-14T09:39:16;5.90;;;2.40;;
28822;SDS011;15961;54.678;9.110;2023-06-14T09:41:42;5.53;;;2.42;;
28822;SDS011;15961;54.678;9.110;2023-06-14T09:44:08;6.55;;;2.60;;
28822;SDS011;15961;54.678;9.110;2023-06-14T09:46:35;6.28;;;2.30;;
28822;SDS011;15961;54.678;9.110;2023-06-14T09:49:01;5.75;;;2.13;;
28822;SDS011;15961;54.678;9.110;2023-06-14T09:51:28;4.55;;;2.15;;
28822;SDS011;15961;54.678;9.110;2023-06-14T09:54:00;5.18;;;2.40;;
28822;SDS011;15961;54.678;9.110;2023-06-14T09:56:29;5.35;;;2.40;;
28822;SDS011;15961;54.678;9.110;2023-06-14T09:58:56;8.38;;;2.42;;
28822;SDS011;15961;54.678;9.110;2023-06-14T10:01:22;4.18;;;2.22;;
28822;SDS011;15961;54.678;9.110;2023-06-14T10:03:50;3.38;;;2.00;;
28822;SDS011;15961;54.678;9.110;2023-06-14T10:06:17;8.50;;;2.47;;
28822;SDS011;15961;54.678;9.110;2023-06-14T10:08:42;5.18;;;2.70;;
28822;SDS011;15961;54.678;9.110;2023-06-14T10:11:08;5.72;;;2.40;;
28822;SDS011;15961;54.678;9.110;2023-06-14T10:13:34;4.45;;;2.53;;
28822;SDS011;15961;54.678;9.110;2023-06-14T10:16:02;3.08;;;2.00;;
28822;SDS011;15961;54.678;9.110;2023-06-14T10:24:03;5.07;;;2.30;;
28822;SDS011;15961;54.678;9.110;2023-06-14T10:26:30;4.10;;;2.08;;
28822;SDS011;15961;54.678;9.110;2023-06-14T10:29:00;6.00;;;2.60;;
28822;SDS011;15961;54.678;9.110;2023-06-14T10:31:39;5.75;;;2.10;;
28822;SDS011;15961;54.678;9.110;2023-06-14T10:34:06;5.72;;;2.50;;
28822;SDS011;15961;54.678;9.110;2023-06-14T10:36:31;6.40;;;2.58;;
28822;SDS011;15961;54.678;9.110;2023-06-14T10:38:59;7.57;;;2.33;;
28822;SDS011;15961;54.678;9.110;2023-06-14T10:41:26;3.83;;;2.20;;
28822;SDS011;15961;54.678;9.110;2023-06-14T10:43:52;3.83;;;2.50;;
28822;SDS011;15961;54.678;9.110;2023-06-14T10:46:45;3.35;;;1.98;;
28822;SDS011;15961;54.678;9.110;2023-06-14T10:49:12;4.15;;;1.95;;
28822;SDS011;15961;54.678;9.110;2023-06-14T10:51:41;2.75;;;2.10;;
28822;SDS011;15961;54.678;9.110;2023-06-14T10:54:13;3.10;;;2.00;;
28822;SDS011;15961;54.678;9.110;2023-06-14T10:56:39;3.67;;;2.33;;
28822;SDS011;15961;54.678;9.110;2023-06-14T10:59:11;5.38;;;2.25;;
28822;SDS011;15961;54.678;9.110;2023-06-14T11:01:37;3.90;;;2.00;;
28822;SDS011;15961;54.678;9.110;2023-06-14T11:06:47;3.53;;;2.00;;
28822;SDS011;15961;54.678;9.110;2023-06-14T11:11:59;3.22;;;1.60;;
28822;SDS011;15961;54.678;9.110;2023-06-14T11:14:29;4.55;;;2.13;;
28822;SDS011;15961;54.678;9.110;2023-06-14T11:16:55;3.70;;;2.05;;
28822;SDS011;15961;54.678;9.110;2023-06-14T11:19:21;2.88;;;1.77;;
28822;SDS011;15961;54.678;9.110;2023-06-14T11:21:47;4.75;;;2.08;;
28822;SDS011;15961;54.678;9.110;2023-06-14T11:24:13;6.47;;;2.33;;
28822;SDS011;15961;54.678;9.110;2023-06-14T11:26:38;2.67;;;1.90;;
28822;SDS011;15961;54.678;9.110;2023-06-14T11:29:05;4.03;;;2.10;;
28822;SDS011;15961;54.678;9.110;2023-06-14T11:31:30;4.18;;;2.15;;
28822;SDS011;15961;54.678;9.110;2023-06-14T11:33:56;5.07;;;2.63;;
28822;SDS011;15961;54.678;9.110;2023-06-14T11:36:23;3.85;;;1.77;;
28822;SDS011;15961;54.678;9.110;2023-06-14T11:38:48;4.18;;;2.38;;
28822;SDS011;15961;54.678;9.110;2023-06-14T11:41:14;4.40;;;2.20;;
28822;SDS011;15961;54.678;9.110;2023-06-14T11:43:39;3.30;;;2.30;;
28822;SDS011;15961;54.678;9.110;2023-06-14T11:46:11;4.70;;;2.10;;
28822;SDS011;15961;54.678;9.110;2023-06-14T11:48:40;3.95;;;2.13;;
28822;SDS011;15961;54.678;9.110;2023-06-14T11:51:06;3.60;;;2.10;;
28822;SDS011;15961;54.678;9.110;2023-06-14T11:53:31;6.57;;;2.63;;
28822;SDS011;15961;54.678;9.110;2023-06-14T11:55:57;4.85;;;2.03;;
28822;SDS011;15961;54.678;9.110;2023-06-14T11:58:23;3.92;;;2.45;;
28822;SDS011;15961;54.678;9.110;2023-06-14T12:00:51;3.00;;;2.35;;
28822;SDS011;15961;54.678;9.110;2023-06-14T12:03:17;6.63;;;2.38;;
28822;SDS011;15961;54.678;9.110;2023-06-14T12:05:42;6.07;;;2.25;;
28822;SDS011;15961;54.678;9.110;2023-06-14T12:08:08;3.72;;;2.45;;
28822;SDS011;15961;54.678;9.110;2023-06-14T12:10:40;6.35;;;2.75;;
28822;SDS011;15961;54.678;9.110;2023-06-14T12:13:09;3.40;;;1.92;;
28822;SDS011;15961;54.678;9.110;2023-06-14T12:15:35;5.90;;;2.60;;
28822;SDS011;15961;54.678;9.110;2023-06-14T12:18:01;3.63;;;2.17;;
28822;SDS011;15961;54.678;9.110;2023-06-14T12:20:30;3.67;;;2.22;;
28822;SDS011;15961;54.678;9.110;2023-06-14T12:22:56;3.45;;;2.22;;
28822;SDS011;15961;54.678;9.110;2023-06-14T12:25:27;5.65;;;2.70;;
28822;SDS011;15961;54.678;9.110;2023-06-14T12:27:56;4.25;;;2.35;;
28822;SDS011;15961;54.678;9.110;2023-06-14T12:30:22;2.85;;;2.15;;
28822;SDS011;15961;54.678;9.110;2023-06-14T12:32:47;2.90;;;2.08;;
28822;SDS011;15961;54.678;9.110;2023-06-14T12:35:13;3.13;;;2.38;;
28822;SDS011;15961;54.678;9.110;2023-06-14T12:37:38;3.20;;;2.20;;
28822;SDS011;15961;54.678;9.110;2023-06-14T12:40:04;3.40;;;1.90;;
28822;SDS011;15961;54.678;9.110;2023-06-14T12:42:30;5.30;;;2.10;;
28822;SDS011;15961;54.678;9.110;2023-06-14T12:44:56;3.58;;;2.70;;
28822;SDS011;15961;54.678;9.110;2023-06-14T12:47:21;3.85;;;2.03;;
28822;SDS011;15961;54.678;9.110;2023-06-14T12:49:47;4.93;;;2.25;;
28822;SDS011;15961;54.678;9.110;2023-06-14T12:52:12;3.60;;;2.13;;
28822;SDS011;15961;54.678;9.110;2023-06-14T12:54:37;4.55;;;2.10;;
28822;SDS011;15961;54.678;9.110;2023-06-14T12:57:04;3.25;;;2.60;;
28822;SDS011;15961;54.678;9.110;2023-06-14T12:59:30;4.20;;;2.50;;
28822;SDS011;15961;54.678;9.110;2023-06-14T13:01:58;6.43;;;2.55;;
28822;SDS011;15961;54.678;9.110;2023-06-14T13:04:24;4.35;;;2.47;;
28822;SDS011;15961;54.678;9.110;2023-06-14T13:06:49;3.78;;;2.40;;
28822;SDS011;15961;54.678;9.110;2023-06-14T13:09:14;7.53;;;2.90;;
28822;SDS011;15961;54.678;9.110;2023-06-14T13:11:40;3.28;;;2.25;;
28822;SDS011;15961;54.678;9.110;2023-06-14T13:14:05;3.53;;;2.40;;
28822;SDS011;15961;54.678;9.110;2023-06-14T13:16:30;5.25;;;2.15;;
28822;SDS011;15961;54.678;9.110;2023-06-14T13:18:56;5.97;;;2.50;;
28822;SDS011;15961;54.678;9.110;2023-06-14T13:21:21;3.83;;;2.50;;
28822;SDS011;15961;54.678;9.110;2023-06-14T13:23:46;3.90;;;2.40;;
28822;SDS011;15961;54.678;9.110;2023-06-14T13:26:12;6.90;;;2.50;;
28822;SDS011;15961;54.678;9.110;2023-06-14T13:28:37;4.90;;;2.47;;
28822;SDS011;15961;54.678;9.110;2023-06-14T13:31:02;5.47;;;2.47;;
28822;SDS011;15961;54.678;9.110;2023-06-14T13:33:27;3.55;;;2.45;;
28822;SDS011;15961;54.678;9.110;2023-06-14T13:35:53;5.43;;;2.65;;
28822;SDS011;15961;54.678;9.110;2023-06-14T13:38:18;4.50;;;2.25;;
28822;SDS011;15961;54.678;9.110;2023-06-14T13:40:44;3.38;;;2.17;;
28822;SDS011;15961;54.678;9.110;2023-06-14T13:43:09;3.40;;;2.10;;
28822;SDS011;15961;54.678;9.110;2023-06-14T13:45:35;7.95;;;2.33;;
28822;SDS011;15961;54.678;9.110;2023-06-14T13:48:00;3.85;;;2.03;;
28822;SDS011;15961;54.678;9.110;2023-06-14T13:50:25;5.20;;;2.25;;
28822;SDS011;15961;54.678;9.110;2023-06-14T13:52:51;6.85;;;2.20;;
28822;SDS011;15961;54.678;9.110;2023-06-14T13:55:16;4.28;;;2.30;;
28822;SDS011;15961;54.678;9.110;2023-06-14T13:57:41;5.18;;;2.15;;
28822;SDS011;15961;54.678;9.110;2023-06-14T14:00:07;4.25;;;2.63;;
28822;SDS011;15961;54.678;9.110;2023-06-14T14:02:33;3.97;;;2.30;;
28822;SDS011;15961;54.678;9.110;2023-06-14T14:04:58;6.20;;;2.40;;
28822;SDS011;15961;54.678;9.110;2023-06-14T14:07:24;5.28;;;2.10;;
28822;SDS011;15961;54.678;9.110;2023-06-14T14:09:49;2.78;;;2.10;;
28822;SDS011;15961;54.678;9.110;2023-06-14T14:12:14;3.40;;;2.28;;
28822;SDS011;15961;54.678;9.110;2023-06-14T14:14:40;3.78;;;2.10;;
28822;SDS011;15961;54.678;9.110;2023-06-14T14:17:05;3.58;;;2.53;;
28822;SDS011;15961;54.678;9.110;2023-06-14T14:19:31;4.22;;;2.55;;
28822;SDS011;15961;54.678;9.110;2023-06-14T14:21:57;5.50;;;2.28;;
28822;SDS011;15961;54.678;9.110;2023-06-14T14:24:22;3.97;;;2.40;;
28822;SDS011;15961;54.678;9.110;2023-06-14T14:26:48;5.15;;;2.50;;
28822;SDS011;15961;54.678;9.110;2023-06-14T14:29:14;5.47;;;2.72;;
28822;SDS011;15961;54.678;9.110;2023-06-14T14:31:40;6.07;;;2.70;;
28822;SDS011;15961;54.678;9.110;2023-06-14T14:34:05;4.32;;;2.70;;
28822;SDS011;15961;54.678;9.110;2023-06-14T14:36:31;2.95;;;2.08;;
28822;SDS011;15961;54.678;9.110;2023-06-14T14:38:56;5.18;;;2.15;;
28822;SDS011;15961;54.678;9.110;2023-06-14T14:41:21;4.10;;;2.20;;
28822;SDS011;15961;54.678;9.110;2023-06-14T14:43:46;3.53;;;1.98;;
28822;SDS011;15961;54.678;9.110;2023-06-14T14:46:12;3.97;;;2.40;;
28822;SDS011;15961;54.678;9.110;2023-06-14T14:48:37;5.60;;;2.70;;
28822;SDS011;15961;54.678;9.110;2023-06-14T14:51:02;5.53;;;2.67;;
28822;SDS011;15961;54.678;9.110;2023-06-14T14:53:28;3.28;;;2.30;;
28822;SDS011;15961;54.678;9.110;2023-06-14T14:55:53;4.78;;;2.60;;